sensor_id;sensor_type;location;lat;lon;timestamp;pressure;altitude;pressure_sealevel;temperature;humidity
25392;BME280;13329;48.402;11.718;2024-03-02T00:02:18;95229.03;;;7.54;100.00
25392;BME280;13329;48.402;11.718;2024-03-02T00:04:44;95229.03;;;7.54;100.00
25392;BME280;13329;48.402;11.718;2024-03-02T00:07:14;95222.22;;;7.58;100.00
25392;BME280;13329;48.402;11.718;2024-03-02T00:09:39;95216.94;;;7.48;100.00
25392;BME280;13329;48.402;11.718;2024-03-02T00:12:05;95225.09;;;7.61;100.00
25392;BME280;13329;48.402;11.718;2024-03-02T00:14:30;95215.41;;;7.62;100.00
25392;BME280;13329;48.402;11.718;2024-03-02T00:16:56;95211.09;;;7.35;100.00
25392;BME280;13329;48.402;11.718;2024-03-02T00:19:21;95207.78;;;7.03;100.00
25392;BME280;13329;48.402;11.718;2024-03-02T00:21:47;95203.63;;;7.07;100.00
25392;BME280;13329;48.402;11.718;2024-03-02T00:24:28;95201.13;;;7.37;100.00
25392;BME280;13329;48.402;11.718;2024-03-02T00:26:56;95205.06;;;7.30;100.00
25392;BME280;13329;48.402;11.718;2024-03-02T00:29:21;95199.56;;;7.36;100.00
25392;BME280;13329;48.402;11.718;2024-03-02T00:31:47;95190.34;;;7.24;100.00
25392;BME280;13329;48.402;11.718;2024-03-02T00:34:13;95194.38;;;7.57;100.00
25392;BME280;13329;48.402;11.718;2024-03-02T00:36:41;95195.97;;;7.53;100.00
25392;BME280;13329;48.402;11.718;2024-03-02T00:39:07;95202.03;;;7.63;100.00
25392;BME280;13329;48.402;11.718;2024-03-02T00:41:33;95196.28;;;7.77;100.00
25392;BME280;13329;48.402;11.718;2024-03-02T00:43:59;95194.38;;;7.57;100.00
25392;BME280;13329;48.402;11.718;2024-03-02T00:46:28;95194.84;;;7.33;100.00
25392;BME280;13329;48.402;11.718;2024-03-02T00:48:59;95196.41;;;7.29;100.00
25392;BME280;13329;48.402;11.718;2024-03-02T00:51:27;95193.19;;;7.22;100.00
25392;BME280;13329;48.402;11.718;2024-03-02T00:53:54;95195.69;;;7.59;100.00
25392;BME280;13329;48.402;11.718;2024-03-02T00:56:22;95198.50;;;7.37;100.00
25392;BME280;13329;48.402;11.718;2024-03-02T00:58:47;95190.41;;;7.44;100.00
25392;BME280;13329;48.402;11.718;2024-03-02T01:01:13;95187.25;;;7.47;100.00
25392;BME280;13329;48.402;11.718;2024-03-02T01:03:38;95183.63;;;7.58;100.00
25392;BME280;13329;48.402;11.718;2024-03-02T01:06:04;95183.84;;;7.52;100.00
25392;BME280;13329;48.402;11.718;2024-03-02T01:08:30;95187.25;;;7.42;100.00
25392;BME280;13329;48.402;11.718;2024-03-02T01:10:55;95182.84;;;7.53;100.00
25392;BME280;13329;48.402;11.718;2024-03-02T01:13:22;95182.31;;;7.66;100.00
25392;BME280;13329;48.402;11.718;2024-03-02T01:15:48;95183.41;;;7.85;100.00
25392;BME280;13329;48.402;11.718;2024-03-02T01:18:13;95178.72;;;8.03;100.00
25392;BME280;13329;48.402;11.718;2024-03-02T01:20:39;95181.03;;;7.68;100.00
25392;BME280;13329;48.402;11.718;2024-03-02T01:23:04;95187.34;;;7.67;100.00
25392;BME280;13329;48.402;11.718;2024-03-02T01:25:29;95189.34;;;7.40;100.00
25392;BME280;13329;48.402;11.718;2024-03-02T01:27:55;95192.25;;;7.49;100.00
25392;BME280;13329;48.402;11.718;2024-03-02T01:30:20;95194.34;;;7.52;100.00
25392;BME280;13329;48.402;11.718;2024-03-02T01:32:46;95190.72;;;7.53;100.00
25392;BME280;13329;48.402;11.718;2024-03-02T01:35:12;95196.75;;;7.53;100.00
25392;BME280;13329;48.402;11.718;2024-03-02T01:37:37;95194.19;;;7.79;100.00
25392;BME280;13329;48.402;11.718;2024-03-02T01:40:02;95198.16;;;8.02;100.00
25392;BME280;13329;48.402;11.718;2024-03-02T01:42:29;95197.91;;;8.08;100.00
25392;BME280;13329;48.402;11.718;2024-03-02T01:44:55;95197.91;;;8.29;100.00
25392;BME280;13329;48.402;11.718;2024-03-02T01:47:21;95196.63;;;8.52;99.73
25392;BME280;13329;48.402;11.718;2024-03-02T01:49:46;95197.19;;;8.48;97.71
25392;BME280;13329;48.402;11.718;2024-03-02T01:52:11;95202.38;;;8.23;99.74
25392;BME280;13329;48.402;11.718;2024-03-02T01:54:37;95197.69;;;8.45;97.78
25392;BME280;13329;48.402;11.718;2024-03-02T01:57:02;95199.75;;;8.23;96.97
25392;BME280;13329;48.402;11.718;2024-03-02T01:59:28;95195.59;;;8.37;98.72
25392;BME280;13329;48.402;11.718;2024-03-02T02:01:53;95192.91;;;8.02;99.07
25392;BME280;13329;48.402;11.718;2024-03-02T02:04:18;95191.84;;;7.87;100.00
25392;BME280;13329;48.402;11.718;2024-03-02T02:06:46;95188.44;;;8.02;100.00
25392;BME280;13329;48.402;11.718;2024-03-02T02:09:12;95184.53;;;8.10;100.00
25392;BME280;13329;48.402;11.718;2024-03-02T02:11:37;95185.59;;;8.24;100.00
25392;BME280;13329;48.402;11.718;2024-03-02T02:14:02;95176.09;;;8.33;100.00
25392;BME280;13329;48.402;11.718;2024-03-02T02:16:28;95174.81;;;8.31;98.95
25392;BME280;13329;48.402;11.718;2024-03-02T02:18:53;95177.44;;;8.10;99.60
25392;BME280;13329;48.402;11.718;2024-03-02T02:21:22;95174.22;;;7.72;100.00
25392;BME280;13329;48.402;11.718;2024-03-02T02:23:48;95168.97;;;7.78;100.00
25392;BME280;13329;48.402;11.718;2024-03-02T02:26:13;95168.19;;;7.82;100.00
25392;BME280;13329;48.402;11.718;2024-03-02T02:28:39;95174.25;;;7.93;100.00
25392;BME280;13329;48.402;11.718;2024-03-02T02:31:11;95165.59;;;8.03;100.00
25392;BME280;13329;48.402;11.718;2024-03-02T02:33:42;95167.16;;;8.04;100.00
25392;BME280;13329;48.402;11.718;2024-03-02T02:36:07;95164.53;;;7.98;100.00
25392;BME280;13329;48.402;11.718;2024-03-02T02:38:36;95160.34;;;8.18;100.00
25392;BME280;13329;48.402;11.718;2024-03-02T02:41:03;95155.34;;;8.32;99.46
25392;BME280;13329;48.402;11.718;2024-03-02T02:43:28;95152.22;;;8.40;97.79
25392;BME280;13329;48.402;11.718;2024-03-02T02:45:53;95150.88;;;8.27;96.87
25392;BME280;13329;48.402;11.718;2024-03-02T02:48:19;95148.28;;;8.37;96.60
25392;BME280;13329;48.402;11.718;2024-03-02T02:50:44;95151.44;;;8.39;96.01
25392;BME280;13329;48.402;11.718;2024-03-02T02:53:09;95154.28;;;8.33;96.84
25392;BME280;13329;48.402;11.718;2024-03-02T02:55:35;95159.31;;;8.24;97.29
25392;BME280;13329;48.402;11.718;2024-03-02T02:58:03;95146.16;;;8.29;97.36
25392;BME280;13329;48.402;11.718;2024-03-02T03:00:28;95163.22;;;8.27;97.50
25392;BME280;13329;48.402;11.718;2024-03-02T03:02:54;95159.56;;;8.22;97.03
25392;BME280;13329;48.402;11.718;2024-03-02T03:05:19;95162.19;;;8.17;97.26
25392;BME280;13329;48.402;11.718;2024-03-02T03:07:44;95163.50;;;8.30;97.11
25392;BME280;13329;48.402;11.718;2024-03-02T03:10:10;95167.97;;;8.35;96.86
25392;BME280;13329;48.402;11.718;2024-03-02T03:12:35;95167.44;;;8.33;95.62
25392;BME280;13329;48.402;11.718;2024-03-02T03:15:01;95171.38;;;8.20;95.47
25392;BME280;13329;48.402;11.718;2024-03-02T03:17:28;95171.91;;;8.32;95.47
25392;BME280;13329;48.402;11.718;2024-03-02T03:19:53;95171.63;;;8.29;94.85
25392;BME280;13329;48.402;11.718;2024-03-02T03:22:19;95173.47;;;8.13;94.49
25392;BME280;13329;48.402;11.718;2024-03-02T03:24:45;95160.59;;;7.91;97.16
25392;BME280;13329;48.402;11.718;2024-03-02T03:27:10;95162.44;;;8.06;97.68
25392;BME280;13329;48.402;11.718;2024-03-02T03:29:36;95156.41;;;8.15;96.72
25392;BME280;13329;48.402;11.718;2024-03-02T03:32:02;95162.97;;;8.18;95.89
25392;BME280;13329;48.402;11.718;2024-03-02T03:34:28;95164.03;;;8.07;95.82
25392;BME280;13329;48.402;11.718;2024-03-02T03:36:54;95167.69;;;8.21;95.69
25392;BME280;13329;48.402;11.718;2024-03-02T03:39:19;95169.78;;;8.04;95.42
25392;BME280;13329;48.402;11.718;2024-03-02T03:41:44;95160.84;;;8.05;95.99
25392;BME280;13329;48.402;11.718;2024-03-02T03:44:10;95157.19;;;8.16;95.83
25392;BME280;13329;48.402;11.718;2024-03-02T03:46:35;95167.16;;;8.14;95.56
25392;BME280;13329;48.402;11.718;2024-03-02T03:49:00;95157.72;;;8.13;95.15
25392;BME280;13329;48.402;11.718;2024-03-02T03:51:26;95163.50;;;8.15;95.58
25392;BME280;13329;48.402;11.718;2024-03-02T03:53:51;95160.34;;;8.13;95.28
25392;BME280;13329;48.402;11.718;2024-03-02T03:56:16;95162.97;;;8.13;95.58
25392;BME280;13329;48.402;11.718;2024-03-02T03:58:42;95164.03;;;8.17;96.51
25392;BME280;13329;48.402;11.718;2024-03-02T04:01:07;95160.88;;;8.15;96.20
25392;BME280;13329;48.402;11.718;2024-03-02T04:03:33;95167.69;;;8.16;96.39
25392;BME280;13329;48.402;11.718;2024-03-02T04:05:58;95162.19;;;8.02;97.04
25392;BME280;13329;48.402;11.718;2024-03-02T04:08:24;95160.31;;;7.77;98.29
25392;BME280;13329;48.402;11.718;2024-03-02T04:10:49;95171.34;;;7.84;100.00
25392;BME280;13329;48.402;11.718;2024-03-02T04:13:14;95170.81;;;7.82;99.72
25392;BME280;13329;48.402;11.718;2024-03-02T04:15:39;95178.13;;;7.65;100.00
25392;BME280;13329;48.402;11.718;2024-03-02T04:18:06;95178.59;;;7.46;100.00
25392;BME280;13329;48.402;11.718;2024-03-02T04:20:31;95179.47;;;7.67;100.00
25392;BME280;13329;48.402;11.718;2024-03-02T04:22:56;95181.84;;;7.79;100.00
25392;BME280;13329;48.402;11.718;2024-03-02T04:25:21;95180.84;;;8.01;99.68
25392;BME280;13329;48.402;11.718;2024-03-02T04:27:47;95181.84;;;8.00;98.18
25392;BME280;13329;48.402;11.718;2024-03-02T04:30:12;95183.69;;;7.99;98.10
25392;BME280;13329;48.402;11.718;2024-03-02T04:32:38;95187.94;;;8.15;97.00
25392;BME280;13329;48.402;11.718;2024-03-02T04:35:04;95194.50;;;8.08;96.70
25392;BME280;13329;48.402;11.718;2024-03-02T04:37:30;95196.56;;;7.90;97.04
25392;BME280;13329;48.402;11.718;2024-03-02T04:39:56;95200.00;;;7.96;97.53
25392;BME280;13329;48.402;11.718;2024-03-02T04:42:21;95195.03;;;8.10;96.80
25392;BME280;13329;48.402;11.718;2024-03-02T04:44:47;95202.91;;;8.20;95.84
25392;BME280;13329;48.402;11.718;2024-03-02T04:47:13;95202.34;;;7.87;96.40
25392;BME280;13329;48.402;11.718;2024-03-02T04:49:38;95203.41;;;7.91;97.56
25392;BME280;13329;48.402;11.718;2024-03-02T04:52:04;95205.28;;;8.16;96.40
25392;BME280;13329;48.402;11.718;2024-03-02T04:54:29;95210.72;;;7.84;96.26
25392;BME280;13329;48.402;11.718;2024-03-02T04:56:54;95205.78;;;8.03;97.03
25392;BME280;13329;48.402;11.718;2024-03-02T04:59:20;95205.78;;;8.13;96.63
25392;BME280;13329;48.402;11.718;2024-03-02T05:01:45;95207.63;;;8.23;95.45
25392;BME280;13329;48.402;11.718;2024-03-02T05:04:12;95211.81;;;8.14;94.52
25392;BME280;13329;48.402;11.718;2024-03-02T05:06:38;95209.72;;;7.95;94.94
25392;BME280;13329;48.402;11.718;2024-03-02T05:09:05;95213.34;;;7.84;96.10
25392;BME280;13329;48.402;11.718;2024-03-02T05:11:30;95216.00;;;8.00;96.43
25392;BME280;13329;48.402;11.718;2024-03-02T05:14:02;95219.66;;;7.78;96.85
25392;BME280;13329;48.402;11.718;2024-03-02T05:16:27;95215.47;;;7.77;96.71
25392;BME280;13329;48.402;11.718;2024-03-02T05:18:52;95223.34;;;7.77;97.07
25392;BME280;13329;48.402;11.718;2024-03-02T05:21:18;95226.75;;;7.78;97.51
25392;BME280;13329;48.402;11.718;2024-03-02T05:23:43;95224.16;;;7.93;96.71
25392;BME280;13329;48.402;11.718;2024-03-02T05:26:09;95227.06;;;8.02;96.26
25392;BME280;13329;48.402;11.718;2024-03-02T05:28:36;95232.03;;;8.03;94.86
25392;BME280;13329;48.402;11.718;2024-03-02T05:31:02;95231.25;;;7.92;95.21
25392;BME280;13329;48.402;11.718;2024-03-02T05:33:27;95229.13;;;7.84;96.21
25392;BME280;13329;48.402;11.718;2024-03-02T05:35:53;95225.47;;;7.95;95.51
25392;BME280;13329;48.402;11.718;2024-03-02T05:38:18;95223.09;;;7.89;95.70
25392;BME280;13329;48.402;11.718;2024-03-02T05:40:44;95227.06;;;8.02;94.91
25392;BME280;13329;48.402;11.718;2024-03-02T05:43:09;95226.53;;;8.05;93.80
25392;BME280;13329;48.402;11.718;2024-03-02T05:45:34;95235.19;;;7.95;93.73
25392;BME280;13329;48.402;11.718;2024-03-02T05:48:00;95232.72;;;7.53;95.90
25392;BME280;13329;48.402;11.718;2024-03-02T05:50:25;95242.19;;;7.69;97.51
25392;BME280;13329;48.402;11.718;2024-03-02T05:52:50;95231.41;;;7.60;96.85
25392;BME280;13329;48.402;11.718;2024-03-02T05:55:15;95235.69;;;7.77;96.85
25392;BME280;13329;48.402;11.718;2024-03-02T05:57:41;95238.31;;;7.77;95.64
25392;BME280;13329;48.402;11.718;2024-03-02T06:00:09;95242.66;;;7.51;95.83
25392;BME280;13329;48.402;11.718;2024-03-02T06:02:39;95241.66;;;7.62;97.27
25392;BME280;13329;48.402;11.718;2024-03-02T06:05:04;95232.75;;;7.73;96.63
25392;BME280;13329;48.402;11.718;2024-03-02T06:07:30;95239.88;;;7.78;95.81
25392;BME280;13329;48.402;11.718;2024-03-02T06:09:55;95231.72;;;7.79;95.33
25392;BME280;13329;48.402;11.718;2024-03-02T06:12:20;95229.13;;;7.89;95.64
25392;BME280;13329;48.402;11.718;2024-03-02T06:14:46;95231.22;;;7.87;95.01
25392;BME280;13329;48.402;11.718;2024-03-02T06:17:11;95230.16;;;7.83;94.83
25392;BME280;13329;48.402;11.718;2024-03-02T06:19:36;95235.72;;;7.92;95.02
25392;BME280;13329;48.402;11.718;2024-03-02T06:22:01;95238.63;;;8.01;94.69
25392;BME280;13329;48.402;11.718;2024-03-02T06:24:27;95237.56;;;8.07;94.54
25392;BME280;13329;48.402;11.718;2024-03-02T06:26:52;95236.53;;;8.13;94.41
25392;BME280;13329;48.402;11.718;2024-03-02T06:29:17;95237.56;;;8.02;94.51
25392;BME280;13329;48.402;11.718;2024-03-02T06:31:43;95228.66;;;8.18;93.25
25392;BME280;13329;48.402;11.718;2024-03-02T06:34:08;95232.34;;;8.17;93.19
25392;BME280;13329;48.402;11.718;2024-03-02T06:36:34;95231.28;;;8.23;92.61
25392;BME280;13329;48.402;11.718;2024-03-02T06:38:59;95230.25;;;8.24;92.18
25392;BME280;13329;48.402;11.718;2024-03-02T06:41:25;95226.31;;;8.27;91.88
25392;BME280;13329;48.402;11.718;2024-03-02T06:43:51;95233.13;;;8.28;91.68
25392;BME280;13329;48.402;11.718;2024-03-02T06:46:24;95229.72;;;8.27;91.65
25392;BME280;13329;48.402;11.718;2024-03-02T06:48:49;95225.78;;;8.30;91.38
25392;BME280;13329;48.402;11.718;2024-03-02T06:51:15;95232.88;;;8.34;91.22
25392;BME280;13329;48.402;11.718;2024-03-02T06:53:41;95227.63;;;8.34;90.95
25392;BME280;13329;48.402;11.718;2024-03-02T06:56:07;95226.06;;;8.38;90.30
25392;BME280;13329;48.402;11.718;2024-03-02T06:58:33;95226.59;;;8.40;90.29
25392;BME280;13329;48.402;11.718;2024-03-02T07:00:58;95229.75;;;8.42;90.36
25392;BME280;13329;48.402;11.718;2024-03-02T07:03:25;95230.28;;;8.50;89.95
25392;BME280;13329;48.402;11.718;2024-03-02T07:05:50;95233.97;;;8.54;89.67
25392;BME280;13329;48.402;11.718;2024-03-02T07:08:16;95238.19;;;8.55;89.25
25392;BME280;13329;48.402;11.718;2024-03-02T07:10:41;95236.34;;;8.60;89.45
25392;BME280;13329;48.402;11.718;2024-03-02T07:13:06;95239.75;;;8.51;88.92
25392;BME280;13329;48.402;11.718;2024-03-02T07:15:32;95233.69;;;8.60;90.03
25392;BME280;13329;48.402;11.718;2024-03-02T07:18:35;95235.53;;;8.75;89.61
25392;BME280;13329;48.402;11.718;2024-03-02T07:21:09;95245.00;;;8.81;89.04
25392;BME280;13329;48.402;11.718;2024-03-02T07:23:34;95244.47;;;8.79;89.08
25392;BME280;13329;48.402;11.718;2024-03-02T07:26:00;95244.72;;;8.93;89.74
25392;BME280;13329;48.402;11.718;2024-03-02T07:28:26;95241.25;;;9.23;88.40
25392;BME280;13329;48.402;11.718;2024-03-02T07:31:02;95252.72;;;9.52;86.95
25392;BME280;13329;48.402;11.718;2024-03-02T07:33:31;95244.34;;;10.05;86.14
25392;BME280;13329;48.402;11.718;2024-03-02T07:35:57;95251.91;;;10.17;84.17
25392;BME280;13329;48.402;11.718;2024-03-02T07:38:24;95250.63;;;10.53;82.13
25392;BME280;13329;48.402;11.718;2024-03-02T07:40:50;95246.44;;;11.11;78.48
25392;BME280;13329;48.402;11.718;2024-03-02T07:43:16;95246.88;;;11.47;76.74
25392;BME280;13329;48.402;11.718;2024-03-02T07:45:42;95252.09;;;11.28;77.23
25392;BME280;13329;48.402;11.718;2024-03-02T07:48:07;95260.69;;;11.63;76.60
25392;BME280;13329;48.402;11.718;2024-03-02T07:50:32;95250.53;;;12.18;73.29
25392;BME280;13329;48.402;11.718;2024-03-02T07:53:03;95261.34;;;12.73;72.04
25392;BME280;13329;48.402;11.718;2024-03-02T07:55:29;95254.38;;;12.44;71.62
25392;BME280;13329;48.402;11.718;2024-03-02T07:57:55;95261.03;;;11.32;75.25
25392;BME280;13329;48.402;11.718;2024-03-02T08:00:20;95252.22;;;11.66;74.62
25392;BME280;13329;48.402;11.718;2024-03-02T08:02:45;95257.88;;;11.30;76.25
25392;BME280;13329;48.402;11.718;2024-03-02T08:05:11;95265.91;;;10.91;77.43
25392;BME280;13329;48.402;11.718;2024-03-02T08:07:36;95278.81;;;10.58;77.52
25392;BME280;13329;48.402;11.718;2024-03-02T08:10:02;95277.88;;;9.89;80.08
25392;BME280;13329;48.402;11.718;2024-03-02T08:12:27;95284.06;;;9.59;83.50
25392;BME280;13329;48.402;11.718;2024-03-02T08:14:53;95280.66;;;9.54;85.11
25392;BME280;13329;48.402;11.718;2024-03-02T08:17:18;95276.41;;;9.68;84.59
25392;BME280;13329;48.402;11.718;2024-03-02T08:19:44;95280.19;;;10.01;83.71
25392;BME280;13329;48.402;11.718;2024-03-02T08:22:09;95285.63;;;10.25;81.57
25392;BME280;13329;48.402;11.718;2024-03-02T08:24:35;95282.47;;;10.23;82.13
25392;BME280;13329;48.402;11.718;2024-03-02T08:27:01;95293.78;;;10.28;81.25
25392;BME280;13329;48.402;11.718;2024-03-02T08:29:26;95294.97;;;10.02;82.79
25392;BME280;13329;48.402;11.718;2024-03-02T08:31:52;95297.25;;;10.19;82.77
25392;BME280;13329;48.402;11.718;2024-03-02T08:34:18;95298.25;;;10.33;81.47
25392;BME280;13329;48.402;11.718;2024-03-02T08:36:43;95295.66;;;10.67;79.93
25392;BME280;13329;48.402;11.718;2024-03-02T08:39:09;95298.91;;;10.54;80.07
25392;BME280;13329;48.402;11.718;2024-03-02T08:41:45;95302.84;;;10.57;80.25
25392;BME280;13329;48.402;11.718;2024-03-02T08:44:12;95310.94;;;10.31;80.28
25392;BME280;13329;48.402;11.718;2024-03-02T08:46:38;95298.72;;;10.79;80.01
25392;BME280;13329;48.402;11.718;2024-03-02T08:49:04;95297.28;;;10.97;78.78
25392;BME280;13329;48.402;11.718;2024-03-02T08:51:29;95299.84;;;11.61;75.88
25392;BME280;13329;48.402;11.718;2024-03-02T08:53:55;95305.34;;;12.12;73.26
25392;BME280;13329;48.402;11.718;2024-03-02T08:56:20;95302.09;;;11.96;72.10
25392;BME280;13329;48.402;11.718;2024-03-02T08:58:46;95303.19;;;11.42;74.27
25392;BME280;13329;48.402;11.718;2024-03-02T09:01:12;95298.34;;;11.49;73.78
25392;BME280;13329;48.402;11.718;2024-03-02T09:03:37;95300.03;;;11.93;72.59
25392;BME280;13329;48.402;11.718;2024-03-02T09:06:03;95295.59;;;11.89;72.69
25392;BME280;13329;48.402;11.718;2024-03-02T09:08:28;95301.66;;;11.89;73.30
25392;BME280;13329;48.402;11.718;2024-03-02T09:10:55;95297.44;;;13.34;69.07
25392;BME280;13329;48.402;11.718;2024-03-02T09:13:21;95304.00;;;14.83;64.29
25392;BME280;13329;48.402;11.718;2024-03-02T09:15:47;95294.63;;;15.30;59.15
25392;BME280;13329;48.402;11.718;2024-03-02T09:18:12;95295.13;;;15.63;58.19
25392;BME280;13329;48.402;11.718;2024-03-02T09:20:38;95290.47;;;17.22;53.90
25392;BME280;13329;48.402;11.718;2024-03-02T09:23:03;95286.75;;;17.61;52.44
25392;BME280;13329;48.402;11.718;2024-03-02T09:25:29;95289.53;;;17.35;52.86
25392;BME280;13329;48.402;11.718;2024-03-02T09:27:54;95289.25;;;17.66;52.23
25392;BME280;13329;48.402;11.718;2024-03-02T09:30:19;95283.38;;;18.19;50.79
25392;BME280;13329;48.402;11.718;2024-03-02T09:32:45;95284.31;;;18.65;50.09
25392;BME280;13329;48.402;11.718;2024-03-02T09:35:10;95285.09;;;18.45;50.21
25392;BME280;13329;48.402;11.718;2024-03-02T09:37:37;95279.47;;;17.32;51.50
25392;BME280;13329;48.402;11.718;2024-03-02T09:40:03;95283.91;;;15.67;54.70
25392;BME280;13329;48.402;11.718;2024-03-02T09:42:29;95289.28;;;14.77;58.24
25392;BME280;13329;48.402;11.718;2024-03-02T09:44:54;95290.16;;;14.50;57.37
25392;BME280;13329;48.402;11.718;2024-03-02T09:47:20;95286.28;;;14.56;59.15
25392;BME280;13329;48.402;11.718;2024-03-02T09:49:45;95284.19;;;15.34;56.95
25392;BME280;13329;48.402;11.718;2024-03-02T09:52:11;95286.63;;;14.77;58.65
25392;BME280;13329;48.402;11.718;2024-03-02T09:54:38;95276.94;;;15.03;57.59
25392;BME280;13329;48.402;11.718;2024-03-02T09:57:04;95272.63;;;13.30;61.27
25392;BME280;13329;48.402;11.718;2024-03-02T09:59:29;95282.44;;;13.98;61.47
25392;BME280;13329;48.402;11.718;2024-03-02T10:04:27;95282.22;;;14.72;60.60
25392;BME280;13329;48.402;11.718;2024-03-02T10:07:21;95266.06;;;15.76;58.26
25392;BME280;13329;48.402;11.718;2024-03-02T10:09:48;95273.50;;;15.96;56.20
25392;BME280;13329;48.402;11.718;2024-03-02T10:12:16;95267.75;;;16.37;55.11
25392;BME280;13329;48.402;11.718;2024-03-02T10:14:42;95266.84;;;16.68;54.20
25392;BME280;13329;48.402;11.718;2024-03-02T10:17:09;95276.03;;;16.10;55.09
25392;BME280;13329;48.402;11.718;2024-03-02T10:19:35;95268.22;;;14.44;59.57
25392;BME280;13329;48.402;11.718;2024-03-02T10:22:02;95269.91;;;13.16;63.08
25392;BME280;13329;48.402;11.718;2024-03-02T10:24:43;95268.63;;;13.46;63.63
25392;BME280;13329;48.402;11.718;2024-03-02T10:27:17;95254.75;;;13.35;64.19
25392;BME280;13329;48.402;11.718;2024-03-02T10:29:45;95262.59;;;14.09;63.14
25392;BME280;13329;48.402;11.718;2024-03-02T10:32:11;95261.16;;;13.76;63.00
25392;BME280;13329;48.402;11.718;2024-03-02T10:34:39;95254.72;;;14.99;60.81
25392;BME280;13329;48.402;11.718;2024-03-02T10:37:05;95245.13;;;14.89;59.83
25392;BME280;13329;48.402;11.718;2024-03-02T10:39:31;95247.09;;;15.29;58.83
25392;BME280;13329;48.402;11.718;2024-03-02T10:41:58;95251.78;;;16.98;54.61
25392;BME280;13329;48.402;11.718;2024-03-02T10:44:25;95245.00;;;18.24;51.91
25392;BME280;13329;48.402;11.718;2024-03-02T10:46:52;95243.00;;;18.42;48.96
25392;BME280;13329;48.402;11.718;2024-03-02T10:49:19;95243.25;;;18.07;51.46
25392;BME280;13329;48.402;11.718;2024-03-02T10:51:45;95232.44;;;18.66;50.41
25392;BME280;13329;48.402;11.718;2024-03-02T10:54:11;95231.38;;;20.07;47.27
25392;BME280;13329;48.402;11.718;2024-03-02T10:56:40;95234.22;;;21.07;45.56
25392;BME280;13329;48.402;11.718;2024-03-02T11:01:39;95215.31;;;21.32;43.35
25392;BME280;13329;48.402;11.718;2024-03-02T11:04:08;95217.22;;;20.59;43.44
25392;BME280;13329;48.402;11.718;2024-03-02T11:06:35;95210.00;;;19.70;44.30
25392;BME280;13329;48.402;11.718;2024-03-02T11:09:06;95218.34;;;19.11;45.75
25392;BME280;13329;48.402;11.718;2024-03-02T11:11:36;95216.00;;;17.63;48.36
25392;BME280;13329;48.402;11.718;2024-03-02T11:14:04;95206.53;;;15.54;52.75
25392;BME280;13329;48.402;11.718;2024-03-02T11:16:37;95198.03;;;16.70;52.54
25392;BME280;13329;48.402;11.718;2024-03-02T11:19:09;95201.69;;;18.18;48.33
25392;BME280;13329;48.402;11.718;2024-03-02T11:21:36;95194.69;;;19.46;46.89
25392;BME280;13329;48.402;11.718;2024-03-02T11:26:46;95196.19;;;17.35;49.45
25392;BME280;13329;48.402;11.718;2024-03-02T11:32:20;95181.28;;;16.70;52.78
25392;BME280;13329;48.402;11.718;2024-03-02T11:34:47;95174.03;;;19.22;48.68
25392;BME280;13329;48.402;11.718;2024-03-02T11:37:15;95176.97;;;18.30;47.20
25392;BME280;13329;48.402;11.718;2024-03-02T11:39:42;95172.00;;;15.63;52.54
25392;BME280;13329;48.402;11.718;2024-03-02T11:42:08;95170.50;;;16.49;52.41
25392;BME280;13329;48.402;11.718;2024-03-02T11:44:39;95171.56;;;15.70;54.14
25392;BME280;13329;48.402;11.718;2024-03-02T11:47:07;95158.56;;;17.87;50.98
25392;BME280;13329;48.402;11.718;2024-03-02T11:49:43;95162.63;;;17.63;50.21
25392;BME280;13329;48.402;11.718;2024-03-02T11:52:10;95145.28;;;16.55;51.60
25392;BME280;13329;48.402;11.718;2024-03-02T11:54:37;95139.53;;;15.35;56.59
25392;BME280;13329;48.402;11.718;2024-03-02T11:57:12;95140.28;;;18.18;49.94
25392;BME280;13329;48.402;11.718;2024-03-02T11:59:37;95129.00;;;19.86;44.90
25392;BME280;13329;48.402;11.718;2024-03-02T12:02:03;95122.44;;;18.64;47.20
25392;BME280;13329;48.402;11.718;2024-03-02T12:04:29;95132.78;;;18.99;47.43
25392;BME280;13329;48.402;11.718;2024-03-02T12:06:55;95125.00;;;19.18;46.88
25392;BME280;13329;48.402;11.718;2024-03-02T12:09:21;95130.50;;;16.83;48.28
25392;BME280;13329;48.402;11.718;2024-03-02T12:11:47;95133.22;;;17.42;49.61
25392;BME280;13329;48.402;11.718;2024-03-02T12:14:12;95113.63;;;19.46;45.20
25392;BME280;13329;48.402;11.718;2024-03-02T12:16:38;95113.63;;;19.46;44.43
25392;BME280;13329;48.402;11.718;2024-03-02T12:19:05;95111.50;;;19.03;46.58
25392;BME280;13329;48.402;11.718;2024-03-02T12:21:31;95107.41;;;19.17;46.10
25392;BME280;13329;48.402;11.718;2024-03-02T12:23:56;95110.34;;;17.62;49.96
25392;BME280;13329;48.402;11.718;2024-03-02T12:26:22;95105.59;;;17.17;51.94
25392;BME280;13329;48.402;11.718;2024-03-02T12:28:47;95104.03;;;19.45;46.22
25392;BME280;13329;48.402;11.718;2024-03-02T12:31:13;95104.78;;;17.55;48.32
25392;BME280;13329;48.402;11.718;2024-03-02T12:33:39;95098.69;;;19.57;47.46
25392;BME280;13329;48.402;11.718;2024-03-02T12:36:09;95096.22;;;21.20;43.68
25392;BME280;13329;48.402;11.718;2024-03-02T12:38:34;95099.56;;;20.42;44.66
25392;BME280;13329;48.402;11.718;2024-03-02T12:41:00;95087.94;;;19.82;45.28
25392;BME280;13329;48.402;11.718;2024-03-02T12:43:30;95086.75;;;19.42;44.78
25392;BME280;13329;48.402;11.718;2024-03-02T12:45:55;95078.50;;;18.41;47.55
25392;BME280;13329;48.402;11.718;2024-03-02T12:48:21;95077.16;;;20.06;45.62
25392;BME280;13329;48.402;11.718;2024-03-02T12:50:47;95073.38;;;18.69;46.58
25392;BME280;13329;48.402;11.718;2024-03-02T12:53:15;95074.09;;;18.57;47.20
25392;BME280;13329;48.402;11.718;2024-03-02T12:55:44;95063.22;;;20.13;44.81
25392;BME280;13329;48.402;11.718;2024-03-02T12:58:19;95060.81;;;20.83;42.51
25392;BME280;13329;48.402;11.718;2024-03-02T13:00:46;95060.91;;;21.89;39.92
25392;BME280;13329;48.402;11.718;2024-03-02T13:03:11;95057.88;;;20.29;42.24